Bewolking Meer informatie Parkstad Weather Satellite


Neerslagradar Meer informatie Parkstad Rain Snow Radar


Onweersbuien Meer informatie Parkstad Lighntning


24/7 Weercamera Meer informatie Parkstad Weathercam


Natuurbrandrisico
CBI







Het weer levert geen direct gevaar op in Parkstad.    Er zijn geen waarschuwingen afgegeven voor Parkstad (045)

METAR rapporten vliegvelden

   
EHBK - Beek Nederland
Gewijzigd: 13-07-2020 23:55
Gedeeltelijk bewolkt  
Gedeeltelijk bewolkt  
   Wind: NNW 7.4 km/h
Wind: NNW 7.4 km/h
Temperatuur: 16°C
Dauwpunt: 10°C
Vochtigheid: 68%
Barometer: 1019 hPa
Satelliet beelden: Gedeeltelijk bewolkt
Zicht: meer dan 10 km
Bewolking: Gedeeltelijk bewolkt
EHBK 132155Z AUTO 33004KT 9999 NSC 16/10 Q1019
EHBK - Maastricht Nederland
Gewijzigd: 13-07-2020 23:55
Gedeeltelijk bewolkt  
Gedeeltelijk bewolkt  
   Wind: NNW 7.4 km/h
Wind: NNW 7.4 km/h
Temperatuur: 16°C
Dauwpunt: 10°C
Vochtigheid: 68%
Barometer: 1019 hPa
Satelliet beelden: Gedeeltelijk bewolkt
Zicht: meer dan 10 km
Bewolking: Gedeeltelijk bewolkt
EHBK 132155Z AUTO 33004KT 9999 NSC 16/10 Q1019
EBLG - Liège België
Gewijzigd: 13-07-2020 23:50
Helder  
Helder  
   Wind: NNW 7.4 km/h
Wind: NNW 7.4 km/h
Temperatuur: 16°C
Dauwpunt: 9°C
Vochtigheid: 63%
Barometer: 1020 hPa
Zicht: meer dan 10 km
Bewolking: Helder
EBLG 132150Z 33004KT CAVOK 16/09 Q1020 NOSIG
EDDK - Köln/Bonn Duitsland
Gewijzigd: 13-07-2020 23:50
Helder  
Helder  
   Wind: ONO 7.4 km/h
Wind: ONO 7.4 km/h
Temperatuur: 16°C
Dauwpunt: 10°C
Vochtigheid: 68%
Barometer: 1018 hPa
Zicht: meer dan 10 km
Bewolking: Helder
EDDK 132150Z 06004KT CAVOK 16/10 Q1018 NOSIG
EDDL - Düsseldorf Duitsland
Gewijzigd: 13-07-2020 23:50
Helder  
Helder  
   Wind: varieert 1.9 km/h
Wind: varieert 1.9 km/h
Temperatuur: 15°C
Dauwpunt: 11°C
Vochtigheid: 77%
Barometer: 1018 hPa
Zicht: meer dan 10 km
Bewolking: Helder
EDDL 132150Z VRB01KT CAVOK 15/11 Q1018 NOSIG
EHEH - Eindhoven Nederland
Gewijzigd: 13-07-2020 23:55
Grotendeels bewolkt  
Grotendeels bewolkt  
   Wind: Zuiden 1.9 km/h
Wind: Zuiden 1.9 km/h
Temperatuur: 14°C
Dauwpunt: 11°C
Vochtigheid: 82%
Barometer: 1019 hPa
Satelliet beelden: Grotendeels bewolkt
Zicht: meer dan 10 km
Bewolking: Grotendeels bewolkt 11278 m
EHEH 132155Z AUTO 19001KT 9999 BKN370 14/11 Q1019 BLU
ELLX - Luxemburg Luxemburg
Gewijzigd: 13-07-2020 23:50
Helder  
Helder  
   Wind: Noorden 14.8 km/h
Wind: Noorden 14.8 km/h
Temperatuur: 18°C
Dauwpunt: 8°C
Vochtigheid: 52%
Barometer: 1019 hPa
Zicht: meer dan 10 km
Bewolking: Helder
ELLX 132150Z 36008KT CAVOK 18/08 Q1019 NOSIG
EGLL - London England
Gewijzigd: 13-07-2020 23:50
Wat regen mogelijk, Bewolking  
Wat regen mogelijk, Bewolking  
   Wind: WZW 11.1 km/h
Wind: WZW 11.1 km/h
Temperatuur: 18°C
Dauwpunt: 14°C
Vochtigheid: 78%
Barometer: 1019 hPa
Satelliet beelden: Bewolking
Zicht: meer dan 10 km
Bewolking: Bewolking 1006 m
EGLL 132150Z AUTO 25006KT 9999 -RA OVC033 18/14 Q1019 TEMPO 4000 RA BKN014
EBAW - Antwerpen België
Gewijzigd: 13-07-2020 23:50
Helder  
Helder  
   Wind: ZZO 3.7 km/h
Wind: ZZO 3.7 km/h
Temperatuur: 14°C
Dauwpunt: 10°C
Vochtigheid: 77%
Barometer: 1019 hPa
Zicht: meer dan 10 km
Bewolking: Helder
EBAW 132150Z AUTO 15002KT CAVOK 14/10 Q1019
EBOS - Oostende België
Gewijzigd: 13-07-2020 23:50
Helder  
Helder  
   Wind: ZW 11.1 km/h
Wind: ZW 11.1 km/h
Temperatuur: 15°C
Dauwpunt: 10°C
Vochtigheid: 72%
Barometer: 1019 hPa
Zicht: meer dan 10 km
Bewolking: Helder
EBOS 132150Z 22006KT CAVOK 15/10 Q1019 NOSIG
LEAL - La Nucia Spanje
Gewijzigd: 14-07-2020 00:00
Helder  
Helder  
   Wind: ONO 13 km/h
Wind: ONO 13 km/h
Temperatuur: 25°C
Dauwpunt: 20°C
Vochtigheid: 74%
Barometer: 1017 hPa
Zicht: meer dan 10 km
Bewolking: Helder
LEAL 132200Z 07007KT 030V110 CAVOK 25/20 Q1017 NOSIG
TNCA - Oranjestad Aruba
Gewijzigd: 14-07-2020 00:00
Licht bewolkt  
Licht bewolkt  
   Wind: Oosten 35.2 km/h
Wind: Oosten 35.2 km/h
Temperatuur: 30°C
Gevoelstemperatuur: 36°C
Dauwpunt: 25°C
Vochtigheid: 75%
Barometer: 1011 hPa
Satelliet beelden: Licht bewolkt
Zicht: meer dan 10 km
Bewolking: Licht bewolkt 579 m
TNCA 132200Z 09019KT 9999 FEW019 30/25 Q1011 NOSIG
TNCC - Willemstad Curacao
Gewijzigd: 14-07-2020 00:00
Licht bewolkt  
Licht bewolkt  
   Wind: Oosten 20.4 km/h
Wind: Oosten 20.4 km/h
Temperatuur: 30°C
Gevoelstemperatuur: 34°C
Dauwpunt: 23°C
Vochtigheid: 66%
Barometer: 1012 hPa
Satelliet beelden: Licht bewolkt
Zicht: meer dan 10 km
Bewolking: Licht bewolkt 671 m
TNCC 132200Z 10011KT 9999 FEW022 30/23 Q1012 NOSIG
MTPP - Port au Prince Haitië
Gewijzigd: 13-07-2020 23:51
Licht bewolkt  
Licht bewolkt  
   Wind: NW 13 km/h
Wind: NW 13 km/h
Temperatuur: 32°C
Gevoelstemperatuur: 39°C
Dauwpunt: 25°C
Vochtigheid: 67%
Barometer: 1013 hPa
Satelliet beelden: Licht bewolkt
Zicht: 9 km
Bewolking: Licht bewolkt 793 m
MTPP 132151Z 31007KT 9000 FEW026 32/25 Q1013 A2993
ENVA - Trondheim Noorwegen
Gewijzigd: 14-07-2020 00:20
Helder  
Helder  
   Wind: OZO 7.4 km/h
Wind: OZO 7.4 km/h
Temperatuur: 10°C
Voelt als: 9°C
Dauwpunt: 7°C
Vochtigheid: 82%
Barometer: 1013 hPa
Zicht: meer dan 10 km
Bewolking: Helder
ENVA 132220Z 11004KT 080V140 CAVOK 10/07 Q1013 RMK WIND 670FT 09007KT
ENBO - Bodø Noorwegen
Gewijzigd: 13-07-2020 23:50
Gedeeltelijk bewolkt  
Gedeeltelijk bewolkt  
   Wind: ZW 9.3 km/h
Wind: ZW 9.3 km/h
Temperatuur: 11°C
Dauwpunt: 9°C
Vochtigheid: 88%
Barometer: 1015 hPa
Satelliet beelden: Gedeeltelijk bewolkt
Zicht: meer dan 10 km
Bewolking: Licht bewolkt 610 m,
Gedeeltelijk bewolkt 1829 m
ENBO 132150Z 22005KT 9999 FEW020 SCT060 11/09 Q1015 NOSIG
ETNG - Geilenkirchen Duitsland
Gewijzigd: 13-07-2020 23:50
Helder  
Helder  
   Wind: Westen 5.6 km/h
Wind: Westen 5.6 km/h
Temperatuur: 17°C
Dauwpunt: 11°C
Vochtigheid: 68%
Barometer: 1019 hPa
Zicht: meer dan 10 km
Bewolking: Helder
ETNG 132150Z 26003KT CAVOK 17/11 Q1019
 

Script ontwikkeld door  Saratoga-weather.org Aangepast voor de template door  Weerstation Leuven

U vindt ons ook hier:

Het Weer Aktueel

WOW Nederland KNMI

Vereniging voor Weerkunde en Klimatologie

UK Met Office Weather Observation Website (WOW)

WeatherCloud

Weather Underground

Awekas

Weatherlink IP

HAMweather, WeatherForYou, PWS Weather

Citizen Weather Observer Program (CWOP)

Apparatuur in gebruik:

Hardwareleverancier
Weerhuisje

Weerstation
Vantage Pro2+ UV

Weercomputer's
alix3d2 & wl330n

Weerprogramma's
Smartbedded

Satelliet NOAA's
WRX137 & KX137

Satelliet Eumetsat
Ayecka SR1 & Triax

Bliksemdetectie
Boltek StormTracker

Webleverancier
F-Service

Weerhuisje

Vantage Pro2+ UV

alix3d2 & wl330n

Smartbedded

WRX137 & KX137

Ayecka SR1 & Triax

Boltek StormTracker

F-Service